Time;durP1;ratioP1;P1;durP2;ratioP2;P2;SDS_P1;SDS_P2;PMS_P1;PMS_P2;Temp;Humidity;BMP_temperature;BMP_pressure;BME280_temperature;BME280_humidity;BME280_pressure;Samples;Min_cycle;Max_cycle;Signal;HPM_P1;HPM_P2
2021/09/03 00:00:10;;;;;;;7.77;7.17;;;21.40;38.20;;;;;;4955163;28;20446;-67
2021/09/03 00:02:37;;;;;;;8.40;7.60;;;21.40;38.20;;;;;;4955816;28;20278;-67
2021/09/03 00:05:04;;;;;;;7.73;7.13;;;21.40;38.20;;;;;;4955512;28;20917;-67
2021/09/03 00:07:30;;;;;;;7.90;7.30;;;21.40;38.20;;;;;;4955442;28;20419;-67
2021/09/03 00:09:55;;;;;;;8.40;7.70;;;21.40;38.20;;;;;;4955080;28;20521;-67
2021/09/03 00:12:22;;;;;;;8.17;7.47;;;21.40;38.20;;;;;;4955410;29;20191;-69
2021/09/03 00:14:48;;;;;;;8.43;7.83;;;21.40;38.20;;;;;;4955412;28;20199;-67
2021/09/03 00:17:13;;;;;;;9.10;8.20;;;21.40;38.20;;;;;;4955350;28;20505;-68
2021/09/03 00:19:39;;;;;;;8.93;8.23;;;21.40;38.20;;;;;;4953903;28;20241;-68
2021/09/03 00:22:05;;;;;;;7.97;7.27;;;21.40;38.20;;;;;;4955246;28;20180;-66
2021/09/03 00:24:30;;;;;;;9.80;9.00;;;21.40;38.10;;;;;;4955049;28;20597;-67
2021/09/03 00:26:56;;;;;;;7.83;7.23;;;21.40;38.00;;;;;;4955153;29;20646;-67
2021/09/03 00:29:21;;;;;;;8.93;8.07;;;21.40;38.00;;;;;;4954664;28;20638;-68
2021/09/03 00:31:47;;;;;;;7.53;7.03;;;21.40;37.90;;;;;;4955071;29;20184;-67
2021/09/03 00:34:12;;;;;;;8.37;7.77;;;21.40;37.90;;;;;;4955341;29;20258;-67
2021/09/03 00:36:39;;;;;;;7.57;6.87;;;21.40;38.00;;;;;;4954596;29;20266;-67
2021/09/03 00:39:04;;;;;;;7.67;7.07;;;21.40;38.10;;;;;;4954646;28;20175;-68
2021/09/03 00:41:30;;;;;;;8.40;7.70;;;21.40;38.10;;;;;;4954495;28;20442;-69
2021/09/03 00:43:55;;;;;;;7.73;7.13;;;21.40;38.10;;;;;;4954671;29;20176;-67
2021/09/03 00:46:21;;;;;;;7.80;7.27;;;21.40;38.10;;;;;;4954548;28;20549;-67
2021/09/03 00:48:46;;;;;;;8.63;7.97;;;21.40;38.10;;;;;;4954669;29;20180;-68
2021/09/03 00:51:12;;;;;;;7.63;6.80;;;21.30;38.00;;;;;;4954454;28;20195;-67
2021/09/03 00:53:37;;;;;;;7.77;7.17;;;21.40;38.10;;;;;;4954820;28;20218;-67
2021/09/03 00:56:04;;;;;;;7.83;7.13;;;21.40;38.10;;;;;;4954475;29;20183;-67
2021/09/03 00:58:30;;;;;;;7.70;7.10;;;21.40;38.10;;;;;;4954352;28;20262;-65
2021/09/03 01:00:55;;;;;;;8.47;7.67;;;21.40;38.10;;;;;;4954193;28;20937;-65
2021/09/03 01:03:21;;;;;;;6.90;6.30;;;21.40;38.10;;;;;;4954598;29;20190;-66
2021/09/03 01:05:47;;;;;;;8.00;7.30;;;21.30;38.00;;;;;;4954221;29;20171;-67
2021/09/03 01:08:12;;;;;;;7.50;6.90;;;21.30;38.70;;;;;;4954701;28;20638;-66
2021/09/03 01:10:39;;;;;;;7.30;6.60;;;21.30;38.00;;;;;;4954436;28;20199;-66
2021/09/03 01:13:05;;;;;;;8.07;7.47;;;21.40;38.20;;;;;;4954284;28;20207;-68
2021/09/03 01:15:31;;;;;;;7.63;7.00;;;21.40;38.20;;;;;;4954234;29;20794;-67
2021/09/03 01:17:57;;;;;;;7.13;6.57;;;21.30;38.10;;;;;;4954274;29;20425;-67
2021/09/03 01:20:22;;;;;;;8.00;7.33;;;21.30;38.10;;;;;;4954291;28;20965;-66
2021/09/03 01:22:48;;;;;;;7.80;7.10;;;21.30;38.10;;;;;;4954126;29;20176;-66
2021/09/03 01:25:17;;;;;;;6.77;6.27;;;21.30;38.00;;;;;;4954115;29;20214;-66
2021/09/03 01:27:43;;;;;;;6.70;6.20;;;21.30;38.00;;;;;;4968886;28;20207;-66
2021/09/03 01:30:12;;;;;;;7.77;7.27;;;21.30;38.00;;;;;;4953499;28;20490;-65
2021/09/03 01:32:39;;;;;;;7.50;6.90;;;21.30;38.00;;;;;;4953933;28;20459;-66
2021/09/03 01:35:05;;;;;;;6.83;6.33;;;21.30;37.90;;;;;;4954483;28;20411;-66
2021/09/03 01:37:31;;;;;;;7.20;6.70;;;21.30;38.00;;;;;;4953893;28;20891;-66
2021/09/03 01:39:56;;;;;;;7.57;6.97;;;21.30;38.00;;;;;;4953739;28;20458;-66
2021/09/03 01:42:22;;;;;;;7.10;6.50;;;21.30;38.00;;;;;;4953805;29;20184;-66
2021/09/03 01:44:47;;;;;;;8.10;7.40;;;21.30;37.90;;;;;;4953968;29;20184;-68
2021/09/03 01:47:13;;;;;;;8.20;7.60;;;21.30;37.90;;;;;;4953820;28;20659;-67
2021/09/03 01:49:39;;;;;;;6.57;6.07;;;21.30;38.00;;;;;;4953630;28;20299;-68
2021/09/03 01:52:04;;;;;;;7.70;7.10;;;21.30;38.00;;;;;;4952015;29;20182;-67
2021/09/03 01:54:30;;;;;;;7.80;7.30;;;21.30;38.00;;;;;;4953746;29;20258;-67
2021/09/03 01:56:55;;;;;;;7.33;6.73;;;21.30;37.90;;;;;;4953615;29;20180;-67
2021/09/03 01:59:21;;;;;;;7.67;7.07;;;21.30;37.90;;;;;;4953502;28;20179;-67
2021/09/03 02:01:46;;;;;;;6.57;6.10;;;21.30;38.00;;;;;;4953712;29;20226;-67
2021/09/03 02:04:12;;;;;;;7.10;6.60;;;21.30;37.90;;;;;;4953499;29;20201;-68
2021/09/03 02:06:38;;;;;;;7.30;6.80;;;21.20;37.80;;;;;;4953708;29;20222;-67
2021/09/03 02:09:03;;;;;;;7.77;7.20;;;21.20;37.90;;;;;;4953388;29;20207;-67
2021/09/03 02:11:29;;;;;;;7.20;6.70;;;21.20;37.90;;;;;;4953625;28;20218;-68
2021/09/03 02:13:54;;;;;;;7.20;6.63;;;21.30;37.80;;;;;;4953398;29;20681;-68
2021/09/03 02:16:20;;;;;;;6.80;6.30;;;21.30;37.70;;;;;;4953947;29;20163;-67
2021/09/03 02:18:45;;;;;;;7.30;6.77;;;21.20;37.60;;;;;;4953271;29;20172;-68
2021/09/03 02:21:11;;;;;;;7.33;6.43;;;21.30;37.60;;;;;;4953547;28;20195;-67
2021/09/03 02:23:37;;;;;;;7.00;6.50;;;21.20;37.60;;;;;;4953452;29;20190;-67
2021/09/03 02:26:03;;;;;;;7.50;6.80;;;21.20;37.50;;;;;;4953644;29;20183;-68
2021/09/03 02:28:28;;;;;;;7.50;6.83;;;21.20;37.60;;;;;;4953174;28;20179;-68
2021/09/03 02:30:54;;;;;;;7.07;6.53;;;21.20;37.60;;;;;;4953530;28;20203;-68
2021/09/03 02:33:19;;;;;;;7.43;6.73;;;21.20;37.60;;;;;;4953295;29;20207;-68
2021/09/03 02:35:45;;;;;;;7.37;6.77;;;21.20;37.60;;;;;;4952866;29;20314;-67
2021/09/03 02:38:11;;;;;;;6.73;6.23;;;21.20;37.70;;;;;;4953437;29;20226;-67
2021/09/03 02:40:37;;;;;;;6.47;5.97;;;21.20;37.60;;;;;;4953388;28;20200;-68
2021/09/03 02:43:02;;;;;;;6.97;6.47;;;21.20;37.70;;;;;;4956318;28;21008;-68
2021/09/03 02:45:28;;;;;;;7.70;7.00;;;21.20;37.70;;;;;;4956841;29;20179;-68
2021/09/03 02:47:54;;;;;;;8.30;7.60;;;21.20;37.70;;;;;;4956877;28;20206;-67
2021/09/03 02:50:20;;;;;;;7.90;7.30;;;21.20;37.70;;;;;;4956591;28;20513;-68
2021/09/03 02:52:45;;;;;;;6.73;6.23;;;21.20;37.70;;;;;;4956821;29;20681;-67
2021/09/03 02:55:11;;;;;;;7.57;6.97;;;21.20;37.70;;;;;;4956663;29;20183;-68
2021/09/03 02:57:37;;;;;;;7.63;7.03;;;21.20;37.70;;;;;;4956811;29;20681;-67
2021/09/03 03:00:05;;;;;;;7.00;6.50;;;21.20;37.70;;;;;;4956301;28;20427;-67
2021/09/03 03:02:31;;;;;;;7.27;6.30;;;21.20;37.60;;;;;;4956611;28;20184;-67
2021/09/03 03:04:56;;;;;;;7.40;6.90;;;21.20;37.60;;;;;;4956682;29;20772;-67
2021/09/03 03:07:21;;;;;;;7.37;6.77;;;21.20;37.60;;;;;;4956400;29;20215;-67
2021/09/03 03:09:47;;;;;;;7.47;6.97;;;21.20;37.60;;;;;;4956321;28;20232;-68
2021/09/03 03:12:12;;;;;;;7.40;6.70;;;21.20;37.70;;;;;;4956383;29;20183;-68
2021/09/03 03:14:38;;;;;;;7.17;6.57;;;21.20;37.60;;;;;;4956386;29;20203;-68
2021/09/03 03:17:04;;;;;;;7.67;7.17;;;21.10;37.50;;;;;;4956227;29;20565;-67
2021/09/03 03:19:30;;;;;;;7.10;6.60;;;21.20;37.60;;;;;;4956179;28;20214;-68
2021/09/03 03:21:57;;;;;;;7.80;7.10;;;21.20;37.50;;;;;;4956364;28;20427;-67
2021/09/03 03:24:22;;;;;;;6.43;5.93;;;21.20;37.50;;;;;;4956451;28;20427;-67
2021/09/03 03:26:48;;;;;;;7.77;7.17;;;21.20;37.50;;;;;;4956200;29;20411;-68
2021/09/03 03:29:14;;;;;;;7.03;6.57;;;21.20;37.50;;;;;;4956089;28;20259;-67
2021/09/03 03:31:40;;;;;;;6.77;6.27;;;21.20;37.50;;;;;;4956290;29;20542;-67
2021/09/03 03:34:06;;;;;;;6.97;6.37;;;21.10;37.40;;;;;;4956543;28;20460;-68
2021/09/03 03:36:31;;;;;;;7.40;6.77;;;21.20;37.50;;;;;;4956465;28;20171;-68
2021/09/03 03:38:57;;;;;;;7.13;6.53;;;21.10;37.40;;;;;;4955754;29;20426;-67
2021/09/03 03:41:23;;;;;;;9.23;6.90;;;21.20;37.50;;;;;;4955905;28;20562;-68
2021/09/03 03:43:49;;;;;;;6.50;6.00;;;21.20;37.60;;;;;;4955858;28;20407;-67
2021/09/03 03:46:14;;;;;;;7.50;6.90;;;21.20;37.60;;;;;;4955758;29;20210;-68
2021/09/03 03:48:40;;;;;;;6.77;6.27;;;21.20;37.50;;;;;;4955537;29;20211;-68
2021/09/03 03:51:06;;;;;;;6.43;5.93;;;21.20;37.50;;;;;;4955802;28;20199;-67
2021/09/03 03:53:31;;;;;;;6.80;6.30;;;21.10;37.40;;;;;;4955302;28;20772;-68
2021/09/03 03:55:57;;;;;;;6.77;6.27;;;21.10;37.30;;;;;;4955823;29;20180;-68
2021/09/03 03:58:22;;;;;;;7.10;6.47;;;21.20;37.40;;;;;;4955377;28;20242;-68
2021/09/03 04:00:48;;;;;;;6.87;6.37;;;21.10;37.30;;;;;;4955289;28;20700;-67
2021/09/03 04:03:14;;;;;;;6.53;6.03;;;21.20;37.40;;;;;;4955538;29;20675;-67
2021/09/03 04:05:39;;;;;;;6.67;6.17;;;21.10;37.40;;;;;;4955579;29;20179;-67
2021/09/03 04:08:05;;;;;;;8.00;6.67;;;21.10;37.30;;;;;;4955649;29;20183;-68
2021/09/03 04:10:32;;;;;;;7.23;6.70;;;21.10;37.30;;;;;;4955128;28;20298;-68
2021/09/03 04:12:57;;;;;;;7.80;7.10;;;21.10;37.30;;;;;;4955418;28;20454;-66
2021/09/03 04:15:23;;;;;;;6.80;6.30;;;21.10;37.30;;;;;;4955176;28;20407;-65
2021/09/03 04:17:48;;;;;;;7.13;6.53;;;21.10;37.40;;;;;;4955472;29;20179;-66
2021/09/03 04:20:14;;;;;;;7.13;6.63;;;21.10;37.30;;;;;;4954883;28;20217;-66
2021/09/03 04:22:40;;;;;;;7.10;6.50;;;21.10;37.30;;;;;;4953901;29;20214;-67
2021/09/03 04:25:07;;;;;;;6.77;6.27;;;21.10;37.20;;;;;;4955081;28;20192;-67
2021/09/03 04:27:33;;;;;;;6.77;6.17;;;21.10;37.10;;;;;;4955071;28;20183;-67
2021/09/03 04:29:59;;;;;;;7.73;7.13;;;21.10;37.20;;;;;;4954584;28;20446;-67
2021/09/03 04:32:25;;;;;;;6.83;6.33;;;21.10;37.30;;;;;;4955047;28;20776;-67
2021/09/03 04:34:50;;;;;;;7.97;7.37;;;21.10;37.20;;;;;;4954929;29;20203;-67
2021/09/03 04:37:16;;;;;;;7.23;6.63;;;21.10;37.10;;;;;;4955001;29;20187;-67
2021/09/03 04:39:41;;;;;;;7.10;6.60;;;21.10;37.10;;;;;;4954639;28;20192;-67
2021/09/03 04:42:07;;;;;;;7.90;7.30;;;21.10;37.20;;;;;;4954650;28;20206;-67
2021/09/03 04:44:33;;;;;;;7.53;6.90;;;21.10;37.20;;;;;;4954726;28;20179;-68
2021/09/03 04:46:59;;;;;;;7.13;6.63;;;21.10;37.30;;;;;;4954873;28;20720;-67
2021/09/03 04:49:24;;;;;;;7.10;6.60;;;21.10;37.30;;;;;;4954638;28;20593;-66
2021/09/03 04:51:50;;;;;;;6.83;6.30;;;21.10;37.40;;;;;;4954540;29;20520;-67
2021/09/03 04:54:15;;;;;;;6.80;6.20;;;21.10;37.40;;;;;;4954355;29;20285;-67
2021/09/03 04:56:42;;;;;;;6.77;6.17;;;21.00;37.40;;;;;;4954311;29;20266;-68
2021/09/03 04:59:07;;;;;;;6.10;5.70;;;21.10;37.50;;;;;;4954230;28;20178;-67
2021/09/03 05:01:33;;;;;;;7.13;6.53;;;21.10;37.60;;;;;;4954117;29;20439;-67
2021/09/03 05:03:58;;;;;;;6.60;6.10;;;21.10;37.50;;;;;;4954193;28;20254;-66
2021/09/03 05:06:24;;;;;;;6.17;5.77;;;21.10;37.60;;;;;;4954636;29;20266;-68
2021/09/03 05:08:50;;;;;;;6.50;6.00;;;21.10;37.60;;;;;;4954252;29;20179;-68
2021/09/03 05:11:16;;;;;;;6.67;6.07;;;21.10;37.50;;;;;;4954391;28;20602;-66
2021/09/03 05:13:41;;;;;;;6.70;6.10;;;21.10;37.50;;;;;;4954006;29;20451;-67
2021/09/03 05:16:07;;;;;;;6.27;5.77;;;21.10;37.50;;;;;;4954259;29;20230;-67
2021/09/03 05:18:32;;;;;;;8.17;6.20;;;21.10;37.50;;;;;;4953874;28;20175;-67
2021/09/03 05:20:58;;;;;;;7.83;5.73;;;21.10;37.40;;;;;;4954248;28;20562;-66
2021/09/03 05:23:24;;;;;;;7.27;6.57;;;21.10;37.50;;;;;;4953917;28;20643;-68
2021/09/03 05:25:49;;;;;;;7.30;6.67;;;21.10;37.40;;;;;;4954127;28;20287;-66
2021/09/03 05:28:15;;;;;;;7.53;6.83;;;21.10;37.30;;;;;;4953774;28;20183;-66
2021/09/03 05:30:40;;;;;;;8.10;5.87;;;21.10;37.20;;;;;;4953266;28;20198;-66
2021/09/03 05:33:06;;;;;;;6.60;6.00;;;21.10;37.80;;;;;;4954109;29;20199;-67
2021/09/03 05:35:31;;;;;;;6.87;6.27;;;21.10;37.10;;;;;;4953983;29;20639;-66
2021/09/03 05:37:59;;;;;;;7.87;6.47;;;21.10;37.10;;;;;;4953820;29;20255;-66
2021/09/03 05:40:25;;;;;;;7.30;6.70;;;21.10;37.00;;;;;;4953615;28;20230;-66
2021/09/03 05:42:50;;;;;;;7.43;6.83;;;21.10;37.00;;;;;;4953659;29;20422;-66
2021/09/03 05:45:16;;;;;;;8.27;6.50;;;21.20;37.10;;;;;;4953812;29;20226;-66
2021/09/03 05:47:46;;;;;;;7.27;6.67;;;21.10;37.10;;;;;;4953684;29;20529;-66
2021/09/03 05:50:12;;;;;;;6.13;5.73;;;21.10;37.00;;;;;;4953708;28;20203;-68
2021/09/03 05:52:38;;;;;;;10.70;8.47;;;21.20;37.10;;;;;;4953687;28;20435;-67
2021/09/03 05:55:04;;;;;;;9.23;8.00;;;21.20;37.10;;;;;;4953802;28;20474;-66
2021/09/03 05:57:30;;;;;;;9.43;7.97;;;21.20;37.20;;;;;;4953725;28;20238;-67
2021/09/03 05:59:55;;;;;;;9.27;7.63;;;21.20;37.10;;;;;;4953514;28;20829;-67
2021/09/03 06:02:21;;;;;;;7.90;7.10;;;21.20;36.90;;;;;;4953631;29;20559;-67
2021/09/03 06:04:46;;;;;;;9.67;8.47;;;21.20;36.60;;;;;;4953542;29;20183;-66
2021/09/03 06:07:12;;;;;;;8.20;7.47;;;21.20;36.20;;;;;;4953940;29;20211;-66
2021/09/03 06:09:37;;;;;;;8.10;7.37;;;21.10;35.70;;;;;;4953533;28;20297;-67
2021/09/03 06:12:04;;;;;;;7.03;6.37;;;21.20;35.80;;;;;;4953585;29;20229;-67
2021/09/03 06:14:29;;;;;;;7.00;6.50;;;21.20;35.70;;;;;;4953457;28;20682;-67
2021/09/03 06:16:55;;;;;;;7.40;6.80;;;21.20;35.70;;;;;;4956498;28;20446;-66
2021/09/03 06:19:21;;;;;;;9.73;7.67;;;21.20;35.70;;;;;;4957176;28;20233;-68
2021/09/03 06:21:47;;;;;;;7.87;7.27;;;21.10;35.50;;;;;;4957452;28;20179;-66
2021/09/03 06:24:28;;;;;;;7.77;7.07;;;21.20;35.50;;;;;;4957346;28;20417;-68
2021/09/03 06:26:59;;;;;;;7.80;7.07;;;21.20;35.40;;;;;;4957643;28;20194;-67
2021/09/03 06:29:41;;;;;;;7.57;7.00;;;21.20;35.40;;;;;;4957164;28;20517;-67
2021/09/03 06:32:13;;;;;;;8.47;7.70;;;21.10;35.30;;;;;;4957427;28;20493;-66
2021/09/03 06:34:57;;;;;;;8.13;6.93;;;21.20;35.40;;;;;;4957013;28;20458;-67
2021/09/03 06:37:23;;;;;;;7.43;6.67;;;21.10;35.40;;;;;;4969478;28;20423;-67
2021/09/03 06:39:49;;;;;;;8.03;7.20;;;21.10;35.30;;;;;;4956596;28;20803;-66
2021/09/03 06:42:15;;;;;;;7.97;7.27;;;21.10;35.20;;;;;;4954884;29;20433;-67
2021/09/03 06:44:41;;;;;;;7.77;7.07;;;21.20;35.30;;;;;;4955530;28;20238;-68
2021/09/03 06:47:08;;;;;;;7.90;7.23;;;21.10;35.00;;;;;;4955915;28;20426;-68
2021/09/03 06:49:34;;;;;;;8.37;7.67;;;21.10;35.10;;;;;;4955367;28;20522;-68
2021/09/03 06:52:01;;;;;;;9.20;7.53;;;21.10;35.20;;;;;;4956482;28;20411;-70
2021/09/03 06:54:27;;;;;;;11.50;7.10;;;21.10;35.20;;;;;;4956529;28;20459;-66
2021/09/03 06:56:52;;;;;;;9.70;7.63;;;21.10;35.20;;;;;;4956018;29;20419;-67
2021/09/03 06:59:18;;;;;;;12.83;7.30;;;21.10;35.30;;;;;;4955691;28;20183;-67
2021/09/03 07:01:43;;;;;;;12.60;7.30;;;21.10;35.40;;;;;;4956410;29;20194;-69
2021/09/03 07:04:09;;;;;;;7.37;6.80;;;21.10;35.50;;;;;;4956190;29;20700;-67
2021/09/03 07:06:35;;;;;;;7.80;7.10;;;21.10;35.50;;;;;;4956323;29;20182;-68
2021/09/03 07:09:04;;;;;;;13.93;8.20;;;21.10;35.50;;;;;;4951247;29;20180;-67
2021/09/03 07:11:29;;;;;;;9.73;7.00;;;21.10;35.60;;;;;;4947456;29;20195;-68
2021/09/03 07:13:55;;;;;;;10.60;8.30;;;21.10;35.70;;;;;;4945612;29;20457;-67
2021/09/03 07:16:20;;;;;;;9.00;8.00;;;21.10;35.70;;;;;;4954290;29;20172;-66
2021/09/03 07:18:46;;;;;;;9.03;7.60;;;21.10;35.60;;;;;;4955877;29;20251;-67
2021/09/03 07:21:11;;;;;;;11.60;8.80;;;21.10;35.60;;;;;;4956085;29;20574;-67
2021/09/03 07:23:37;;;;;;;9.73;7.27;;;21.10;35.90;;;;;;4957528;29;20545;-69
2021/09/03 07:26:03;;;;;;;11.50;7.47;;;21.00;36.00;;;;;;4955997;29;20183;-65
2021/09/03 07:28:28;;;;;;;7.80;7.20;;;21.10;36.00;;;;;;4955142;28;20231;-66
2021/09/03 07:30:54;;;;;;;7.70;7.00;;;21.10;36.00;;;;;;4956064;28;20529;-65
2021/09/03 07:33:20;;;;;;;6.93;6.30;;;21.10;36.00;;;;;;4955699;28;20202;-66
2021/09/03 07:35:46;;;;;;;11.30;7.20;;;21.10;36.00;;;;;;4955967;28;20219;-66
2021/09/03 07:38:12;;;;;;;10.93;7.07;;;21.20;36.20;;;;;;4986690;28;20186;-65
2021/09/03 07:40:37;;;;;;;7.83;7.03;;;21.20;36.20;;;;;;4955809;28;20308;-65
2021/09/03 07:43:07;;;;;;;7.63;6.90;;;21.20;36.20;;;;;;4955705;29;20459;-65
2021/09/03 07:45:34;;;;;;;7.67;6.90;;;21.20;36.20;;;;;;4955932;28;20190;-65
2021/09/03 07:48:01;;;;;;;7.00;6.30;;;21.20;36.20;;;;;;4955700;28;20423;-67
2021/09/03 07:50:26;;;;;;;9.17;7.77;;;21.20;36.20;;;;;;4955304;28;20445;-65
2021/09/03 07:52:52;;;;;;;7.90;7.20;;;21.10;36.10;;;;;;4955859;29;20455;-65
2021/09/03 07:55:18;;;;;;;7.27;6.70;;;21.10;36.10;;;;;;4956173;29;20258;-64
2021/09/03 07:57:43;;;;;;;8.27;7.57;;;21.10;36.10;;;;;;4956292;29;20210;-65
2021/09/03 08:00:09;;;;;;;9.37;7.57;;;21.10;36.00;;;;;;4954916;28;20219;-64
2021/09/03 08:02:36;;;;;;;7.40;6.70;;;21.10;36.00;;;;;;4955407;28;20183;-66
2021/09/03 08:05:02;;;;;;;9.00;7.77;;;21.10;36.00;;;;;;4954925;28;20421;-66
2021/09/03 08:07:29;;;;;;;9.53;7.83;;;21.10;36.00;;;;;;4955507;28;20419;-66
2021/09/03 08:09:55;;;;;;;8.70;8.00;;;21.10;36.10;;;;;;4954945;28;20435;-67
2021/09/03 08:12:21;;;;;;;8.20;7.50;;;21.10;36.10;;;;;;4955096;29;20852;-67
2021/09/03 08:14:46;;;;;;;11.17;6.90;;;21.10;36.20;;;;;;4954825;29;20484;-68
2021/09/03 08:17:12;;;;;;;8.17;7.47;;;21.10;36.10;;;;;;4955166;29;20423;-66
2021/09/03 08:19:38;;;;;;;7.30;6.67;;;21.10;36.10;;;;;;4954929;28;20566;-66
2021/09/03 08:22:03;;;;;;;13.13;7.83;;;21.10;36.20;;;;;;4954938;29;20176;-67
2021/09/03 08:24:29;;;;;;;7.67;7.07;;;21.10;36.10;;;;;;4954771;29;20179;-67
2021/09/03 08:26:55;;;;;;;9.00;8.20;;;21.10;36.50;;;;;;4955049;29;20257;-66
2021/09/03 08:29:20;;;;;;;8.53;7.07;;;21.10;38.90;;;;;;4954632;28;20175;-66
2021/09/03 08:31:46;;;;;;;8.43;7.63;;;21.10;38.80;;;;;;4954962;28;20188;-67
2021/09/03 08:34:12;;;;;;;8.37;7.70;;;21.20;40.60;;;;;;4954750;29;20697;-67
2021/09/03 08:36:37;;;;;;;9.63;8.70;;;21.10;41.30;;;;;;4954762;29;20214;-67
2021/09/03 08:39:03;;;;;;;10.90;8.40;;;21.10;41.30;;;;;;4953664;28;20662;-67
2021/09/03 08:41:29;;;;;;;11.83;7.70;;;21.10;40.50;;;;;;4954416;28;20677;-69
2021/09/03 08:43:57;;;;;;;8.60;7.90;;;21.10;40.30;;;;;;4954374;28;20215;-66
2021/09/03 08:46:34;;;;;;;8.93;8.13;;;21.20;39.70;;;;;;4954194;28;20445;-65
2021/09/03 08:49:04;;;;;;;9.70;8.10;;;21.20;39.00;;;;;;4954555;28;20505;-67
2021/09/03 08:51:29;;;;;;;7.70;7.00;;;21.20;38.70;;;;;;4954287;28;20474;-64
2021/09/03 08:53:55;;;;;;;9.17;7.87;;;21.20;38.40;;;;;;4954560;28;20454;-65
2021/09/03 08:56:21;;;;;;;9.73;8.20;;;21.30;38.30;;;;;;4954624;29;20180;-66
2021/09/03 08:58:49;;;;;;;8.60;7.27;;;21.40;38.20;;;;;;4954015;29;20207;-65
2021/09/03 09:01:17;;;;;;;8.10;7.40;;;21.40;37.80;;;;;;4954434;28;20598;-65
2021/09/03 09:03:47;;;;;;;8.50;7.70;;;21.50;37.60;;;;;;4953862;28;20437;-65
2021/09/03 09:06:18;;;;;;;8.13;7.47;;;21.50;37.20;;;;;;4954437;28;20493;-65
2021/09/03 09:08:44;;;;;;;7.87;7.00;;;21.60;37.10;;;;;;4953901;29;20958;-65
2021/09/03 09:11:15;;;;;;;10.20;8.37;;;21.60;36.80;;;;;;4954014;28;20469;-65
2021/09/03 09:13:43;;;;;;;9.47;8.67;;;21.60;36.70;;;;;;4953872;28;20199;-66
2021/09/03 09:16:12;;;;;;;8.10;7.50;;;21.70;36.60;;;;;;4954029;29;20415;-66
2021/09/03 09:18:45;;;;;;;7.90;7.30;;;21.70;36.60;;;;;;4953699;28;20493;-66
2021/09/03 09:21:15;;;;;;;7.97;7.30;;;21.80;36.50;;;;;;4953771;28;20466;-65
2021/09/03 09:23:50;;;;;;;8.10;7.50;;;21.80;36.40;;;;;;4953523;28;20419;-65
2021/09/03 09:26:17;;;;;;;8.70;7.90;;;21.80;36.30;;;;;;4953870;28;20419;-65
2021/09/03 09:28:44;;;;;;;8.33;7.43;;;21.90;36.30;;;;;;4953780;28;20506;-65
2021/09/03 09:31:11;;;;;;;8.70;8.03;;;21.90;36.20;;;;;;4953842;28;20467;-66
2021/09/03 09:33:37;;;;;;;8.30;7.70;;;21.90;36.10;;;;;;4953659;28;20586;-66
2021/09/03 09:36:03;;;;;;;8.07;7.37;;;21.90;36.00;;;;;;4953780;28;20501;-66
2021/09/03 09:38:32;;;;;;;7.90;7.30;;;21.90;36.00;;;;;;4953557;28;20415;-66
2021/09/03 09:41:03;;;;;;;7.83;7.07;;;21.90;35.90;;;;;;4953549;28;20566;-66
2021/09/03 09:43:34;;;;;;;8.33;7.63;;;21.90;35.90;;;;;;4953740;28;20411;-66
2021/09/03 09:46:18;;;;;;;8.90;8.20;;;21.90;35.90;;;;;;4953396;28;20906;-66
2021/09/03 09:48:49;;;;;;;7.80;7.10;;;21.90;35.80;;;;;;4953400;28;20863;-66
2021/09/03 09:51:37;;;;;;;7.50;6.90;;;21.80;35.70;;;;;;4953281;28;20443;-66
2021/09/03 09:54:09;;;;;;;7.63;7.03;;;21.80;35.70;;;;;;4953601;29;20466;-67
2021/09/03 09:56:44;;;;;;;7.67;6.97;;;21.80;35.80;;;;;;4953080;28;20419;-67
2021/09/03 09:59:11;;;;;;;9.17;8.37;;;21.80;35.70;;;;;;4953107;28;20486;-66
2021/09/03 10:01:39;;;;;;;9.93;7.57;;;21.80;35.80;;;;;;4953236;28;20443;-66
2021/09/03 10:04:15;;;;;;;7.30;6.70;;;21.80;35.70;;;;;;4953370;28;20418;-65
2021/09/03 10:06:43;;;;;;;7.77;7.00;;;21.80;35.70;;;;;;4953343;28;20419;-66
2021/09/03 10:09:14;;;;;;;8.00;7.30;;;21.80;35.60;;;;;;4953065;28;20419;-65
2021/09/03 10:11:43;;;;;;;7.93;7.23;;;21.80;35.70;;;;;;4953165;28;20820;-66
2021/09/03 10:14:12;;;;;;;8.07;7.37;;;21.80;35.60;;;;;;4953536;28;20466;-67
2021/09/03 10:16:38;;;;;;;8.63;7.93;;;21.80;35.60;;;;;;4953327;28;20419;-67
2021/09/03 10:19:06;;;;;;;7.80;7.20;;;21.80;35.60;;;;;;4953128;29;20932;-67
2021/09/03 10:21:37;;;;;;;7.57;6.97;;;21.80;35.60;;;;;;4953154;28;20410;-66
2021/09/03 10:24:22;;;;;;;8.60;7.83;;;21.80;35.60;;;;;;4953151;28;20426;-67
2021/09/03 10:26:49;;;;;;;8.50;7.53;;;21.80;35.70;;;;;;4953208;28;20414;-67
2021/09/03 10:29:14;;;;;;;7.43;6.90;;;21.80;35.60;;;;;;4952928;28;20430;-67
2021/09/03 10:32:08;;;;;;;7.53;6.83;;;21.80;35.50;;;;;;4953040;29;20465;-66
2021/09/03 10:34:40;;;;;;;7.23;6.60;;;21.90;35.70;;;;;;4953018;28;20203;-67
2021/09/03 10:37:19;;;;;;;7.97;7.17;;;21.80;35.60;;;;;;4953157;28;20399;-67
2021/09/03 10:39:48;;;;;;;10.63;7.60;;;21.80;35.70;;;;;;4952986;28;20627;-67
2021/09/03 10:45:36;;;;;;;7.20;6.50;;;21.80;35.70;;;;;;4935972;28;20426;-67
2021/09/03 10:48:26;;;;;;;8.53;7.73;;;21.80;35.70;;;;;;4952938;28;20913;-67
2021/09/03 10:50:54;;;;;;;7.63;6.97;;;21.80;35.70;;;;;;4953072;28;20878;-66
2021/09/03 10:53:22;;;;;;;7.97;7.27;;;21.80;35.70;;;;;;4952680;28;20489;-68
2021/09/03 10:56:09;;;;;;;7.80;7.23;;;21.80;35.60;;;;;;4953199;28;20426;-66
2021/09/03 10:58:43;;;;;;;8.50;7.53;;;21.80;35.70;;;;;;4952843;28;20418;-69
2021/09/03 11:01:12;;;;;;;8.00;7.40;;;21.80;35.70;;;;;;4952795;28;20446;-66
2021/09/03 11:03:49;;;;;;;7.03;6.37;;;21.80;35.70;;;;;;4955023;28;20411;-66
2021/09/03 11:06:28;;;;;;;7.00;6.50;;;21.80;35.70;;;;;;4956652;28;20445;-66
2021/09/03 11:08:55;;;;;;;7.17;6.57;;;21.80;35.80;;;;;;4956255;28;20406;-67
2021/09/03 11:11:25;;;;;;;7.57;6.97;;;21.80;36.60;;;;;;4956317;28;20461;-66
2021/09/03 11:13:59;;;;;;;7.70;7.10;;;21.80;36.00;;;;;;4956540;28;20465;-65
2021/09/03 11:16:40;;;;;;;9.17;6.70;;;21.80;35.90;;;;;;4956132;28;20470;-66
2021/09/03 11:19:20;;;;;;;7.60;6.97;;;21.80;36.00;;;;;;4956073;29;20407;-65
2021/09/03 11:21:52;;;;;;;7.23;6.60;;;21.90;36.10;;;;;;4956221;28;20964;-67
2021/09/03 11:24:20;;;;;;;8.13;7.53;;;21.90;36.70;;;;;;4956113;28;20412;-67
2021/09/03 11:26:48;;;;;;;7.10;6.50;;;21.90;36.00;;;;;;4955867;28;20796;-67
2021/09/03 11:29:31;;;;;;;7.63;7.03;;;21.90;36.10;;;;;;4955473;28;20827;-67
2021/09/03 11:32:05;;;;;;;7.73;7.13;;;21.90;36.10;;;;;;4955862;28;20446;-67
2021/09/03 11:34:51;;;;;;;7.60;7.10;;;21.90;36.10;;;;;;4955864;28;20462;-68
2021/09/03 11:37:40;;;;;;;8.17;7.27;;;21.90;36.20;;;;;;4955879;28;20414;-68
2021/09/03 11:40:07;;;;;;;7.20;6.50;;;21.90;36.20;;;;;;4955551;28;20431;-67
2021/09/03 11:42:35;;;;;;;7.60;7.00;;;21.90;36.20;;;;;;4955570;28;20411;-67
2021/09/03 11:45:05;;;;;;;7.63;7.03;;;21.90;36.20;;;;;;4955783;28;20422;-67
2021/09/03 11:47:40;;;;;;;7.07;6.50;;;21.90;36.20;;;;;;4955542;28;20427;-67
2021/09/03 11:50:12;;;;;;;6.63;6.13;;;21.90;36.20;;;;;;4955559;28;20458;-67
2021/09/03 11:52:39;;;;;;;7.83;7.23;;;21.90;36.20;;;;;;4955589;28;20419;-66
2021/09/03 11:55:07;;;;;;;7.70;7.10;;;21.90;36.20;;;;;;4955491;28;20415;-67
2021/09/03 11:58:02;;;;;;;6.50;6.10;;;21.90;36.20;;;;;;4955508;28;20419;-67
2021/09/03 12:00:50;;;;;;;7.47;6.97;;;21.90;36.30;;;;;;4955227;28;20455;-65
2021/09/03 12:03:18;;;;;;;7.40;6.77;;;21.90;36.30;;;;;;4955572;28;20783;-66
2021/09/03 12:06:05;;;;;;;7.57;6.87;;;21.90;36.30;;;;;;4955400;29;20474;-67
2021/09/03 12:08:35;;;;;;;7.13;6.60;;;22.00;36.40;;;;;;4955553;28;20561;-66
2021/09/03 12:11:12;;;;;;;7.20;6.60;;;21.90;36.30;;;;;;4954916;28;20842;-67
2021/09/03 12:13:49;;;;;;;7.50;6.90;;;21.90;36.30;;;;;;4953830;28;20466;-68
2021/09/03 12:16:20;;;;;;;7.10;6.60;;;21.90;36.30;;;;;;4955234;28;20789;-67
2021/09/03 12:18:52;;;;;;;7.50;6.90;;;21.90;36.30;;;;;;4954848;28;20407;-68
2021/09/03 12:21:22;;;;;;;7.90;7.30;;;21.90;36.40;;;;;;4955237;28;20581;-69
2021/09/03 12:23:58;;;;;;;7.90;7.30;;;21.90;36.50;;;;;;4955315;28;20505;-68
2021/09/03 12:26:34;;;;;;;7.30;6.70;;;21.90;36.50;;;;;;4955193;28;20423;-68
2021/09/03 12:29:00;;;;;;;7.63;6.97;;;21.90;36.50;;;;;;4954665;28;20423;-67
2021/09/03 12:31:28;;;;;;;7.30;6.63;;;21.90;36.50;;;;;;4954878;28;20438;-67
2021/09/03 12:33:55;;;;;;;7.57;6.97;;;21.90;36.50;;;;;;4969778;28;20207;-68
2021/09/03 12:36:41;;;;;;;8.40;7.70;;;21.90;36.50;;;;;;4954886;28;20407;-67
2021/09/03 12:39:13;;;;;;;7.37;6.87;;;22.00;36.50;;;;;;4935829;29;20930;-68
2021/09/03 12:41:41;;;;;;;7.07;6.47;;;21.90;36.50;;;;;;4935305;29;20440;-68
2021/09/03 12:44:08;;;;;;;8.10;7.40;;;21.90;36.50;;;;;;4941139;29;20415;-68
2021/09/03 12:46:39;;;;;;;8.20;7.47;;;21.90;36.50;;;;;;4954145;28;20506;-67
2021/09/03 12:49:11;;;;;;;9.17;7.73;;;21.90;36.50;;;;;;4953902;28;20411;-68
2021/09/03 12:51:40;;;;;;;8.10;7.17;;;21.90;36.50;;;;;;4954620;29;20415;-68